sensor_id;sensor_type;location;lat;lon;timestamp;temperature;humidity
22716;DHT22;11525;51.152;4.456;2023-04-24T00:00:09;11.40;99.90
22716;DHT22;11525;51.152;4.456;2023-04-24T00:02:36;11.30;99.90
22716;DHT22;11525;51.152;4.456;2023-04-24T00:05:05;11.20;99.90
22716;DHT22;11525;51.152;4.456;2023-04-24T00:07:32;11.30;99.90
22716;DHT22;11525;51.152;4.456;2023-04-24T00:09:57;11.30;99.90
22716;DHT22;11525;51.152;4.456;2023-04-24T00:12:24;11.20;99.90
22716;DHT22;11525;51.152;4.456;2023-04-24T00:14:50;11.20;99.90
22716;DHT22;11525;51.152;4.456;2023-04-24T00:17:16;11.20;99.90
22716;DHT22;11525;51.152;4.456;2023-04-24T00:19:45;11.20;99.90
22716;DHT22;11525;51.152;4.456;2023-04-24T00:22:11;11.20;99.90
22716;DHT22;11525;51.152;4.456;2023-04-24T00:24:39;11.30;99.90
22716;DHT22;11525;51.152;4.456;2023-04-24T00:27:05;11.10;99.90
22716;DHT22;11525;51.152;4.456;2023-04-24T00:29:30;11.20;99.90
22716;DHT22;11525;51.152;4.456;2023-04-24T00:31:56;11.30;99.90
22716;DHT22;11525;51.152;4.456;2023-04-24T00:34:22;11.20;99.90
22716;DHT22;11525;51.152;4.456;2023-04-24T00:36:48;11.10;99.90
22716;DHT22;11525;51.152;4.456;2023-04-24T00:39:21;11.20;99.90
22716;DHT22;11525;51.152;4.456;2023-04-24T00:41:48;11.10;99.90
22716;DHT22;11525;51.152;4.456;2023-04-24T00:44:14;11.20;99.90
22716;DHT22;11525;51.152;4.456;2023-04-24T00:46:41;11.10;99.90
22716;DHT22;11525;51.152;4.456;2023-04-24T00:49:07;11.00;99.90
22716;DHT22;11525;51.152;4.456;2023-04-24T00:51:33;11.10;99.90
22716;DHT22;11525;51.152;4.456;2023-04-24T00:54:00;11.00;99.90
22716;DHT22;11525;51.152;4.456;2023-04-24T00:56:27;10.90;99.90
22716;DHT22;11525;51.152;4.456;2023-04-24T00:58:53;11.10;99.90
22716;DHT22;11525;51.152;4.456;2023-04-24T01:01:21;11.00;99.90
22716;DHT22;11525;51.152;4.456;2023-04-24T01:03:47;11.10;99.90
22716;DHT22;11525;51.152;4.456;2023-04-24T01:06:14;11.10;99.90
22716;DHT22;11525;51.152;4.456;2023-04-24T01:08:41;11.00;99.90
22716;DHT22;11525;51.152;4.456;2023-04-24T01:11:07;11.00;99.90
22716;DHT22;11525;51.152;4.456;2023-04-24T01:13:34;11.00;99.90
22716;DHT22;11525;51.152;4.456;2023-04-24T01:16:00;11.00;99.90
22716;DHT22;11525;51.152;4.456;2023-04-24T01:18:26;11.00;99.90
22716;DHT22;11525;51.152;4.456;2023-04-24T01:20:54;11.00;99.90
22716;DHT22;11525;51.152;4.456;2023-04-24T01:23:22;11.00;99.90
22716;DHT22;11525;51.152;4.456;2023-04-24T01:25:49;11.00;99.90
22716;DHT22;11525;51.152;4.456;2023-04-24T01:28:16;11.00;99.90
22716;DHT22;11525;51.152;4.456;2023-04-24T01:30:42;11.00;99.90
22716;DHT22;11525;51.152;4.456;2023-04-24T01:33:08;10.80;99.90
22716;DHT22;11525;51.152;4.456;2023-04-24T01:35:34;10.80;99.90
22716;DHT22;11525;51.152;4.456;2023-04-24T01:38:02;10.80;99.90
22716;DHT22;11525;51.152;4.456;2023-04-24T01:40:27;10.70;99.90
22716;DHT22;11525;51.152;4.456;2023-04-24T01:42:53;10.70;99.90
22716;DHT22;11525;51.152;4.456;2023-04-24T01:45:19;10.80;99.90
22716;DHT22;11525;51.152;4.456;2023-04-24T01:47:45;10.90;99.90
22716;DHT22;11525;51.152;4.456;2023-04-24T01:50:11;10.90;99.90
22716;DHT22;11525;51.152;4.456;2023-04-24T01:52:37;10.90;99.90
22716;DHT22;11525;51.152;4.456;2023-04-24T01:55:04;11.00;99.90
22716;DHT22;11525;51.152;4.456;2023-04-24T01:57:33;11.00;99.90
22716;DHT22;11525;51.152;4.456;2023-04-24T02:00:00;11.10;99.90
22716;DHT22;11525;51.152;4.456;2023-04-24T02:02:26;11.20;99.90
22716;DHT22;11525;51.152;4.456;2023-04-24T02:04:55;11.20;99.90
22716;DHT22;11525;51.152;4.456;2023-04-24T02:07:21;11.00;99.90
22716;DHT22;11525;51.152;4.456;2023-04-24T02:09:47;11.00;99.90
22716;DHT22;11525;51.152;4.456;2023-04-24T02:12:15;11.20;99.90
22716;DHT22;11525;51.152;4.456;2023-04-24T02:14:43;11.30;99.90
22716;DHT22;11525;51.152;4.456;2023-04-24T02:17:09;11.40;99.90
22716;DHT22;11525;51.152;4.456;2023-04-24T02:19:35;11.30;99.90
22716;DHT22;11525;51.152;4.456;2023-04-24T02:22:01;11.10;99.90
22716;DHT22;11525;51.152;4.456;2023-04-24T02:24:26;11.20;99.90
22716;DHT22;11525;51.152;4.456;2023-04-24T02:26:52;11.10;99.90
22716;DHT22;11525;51.152;4.456;2023-04-24T02:29:18;11.10;99.90
22716;DHT22;11525;51.152;4.456;2023-04-24T02:31:44;11.20;99.90
22716;DHT22;11525;51.152;4.456;2023-04-24T02:34:09;11.10;99.90
22716;DHT22;11525;51.152;4.456;2023-04-24T02:36:35;11.00;99.90
22716;DHT22;11525;51.152;4.456;2023-04-24T02:39:01;11.10;99.90
22716;DHT22;11525;51.152;4.456;2023-04-24T02:41:27;10.90;99.90
22716;DHT22;11525;51.152;4.456;2023-04-24T02:43:58;10.80;99.90
22716;DHT22;11525;51.152;4.456;2023-04-24T02:46:24;10.70;99.90
22716;DHT22;11525;51.152;4.456;2023-04-24T02:48:50;10.70;99.90
22716;DHT22;11525;51.152;4.456;2023-04-24T02:51:16;10.60;99.90
22716;DHT22;11525;51.152;4.456;2023-04-24T02:53:42;10.50;99.90
22716;DHT22;11525;51.152;4.456;2023-04-24T02:56:08;10.60;99.90
22716;DHT22;11525;51.152;4.456;2023-04-24T02:58:34;10.60;99.90
22716;DHT22;11525;51.152;4.456;2023-04-24T03:01:01;10.40;99.90
22716;DHT22;11525;51.152;4.456;2023-04-24T03:03:26;10.50;99.90
22716;DHT22;11525;51.152;4.456;2023-04-24T03:05:52;10.30;99.90
22716;DHT22;11525;51.152;4.456;2023-04-24T03:08:18;10.20;99.90
22716;DHT22;11525;51.152;4.456;2023-04-24T03:10:44;10.20;99.90
22716;DHT22;11525;51.152;4.456;2023-04-24T03:13:10;10.20;99.90
22716;DHT22;11525;51.152;4.456;2023-04-24T03:15:36;10.20;99.90
22716;DHT22;11525;51.152;4.456;2023-04-24T03:18:01;10.20;99.90
22716;DHT22;11525;51.152;4.456;2023-04-24T03:20:28;10.30;99.90
22716;DHT22;11525;51.152;4.456;2023-04-24T03:22:54;10.20;99.90
22716;DHT22;11525;51.152;4.456;2023-04-24T03:25:19;10.10;99.90
22716;DHT22;11525;51.152;4.456;2023-04-24T03:27:45;10.20;99.90
22716;DHT22;11525;51.152;4.456;2023-04-24T03:30:11;10.00;99.90
22716;DHT22;11525;51.152;4.456;2023-04-24T03:32:37;10.10;99.90
22716;DHT22;11525;51.152;4.456;2023-04-24T03:35:06;10.30;99.90
22716;DHT22;11525;51.152;4.456;2023-04-24T03:37:32;10.10;99.90
22716;DHT22;11525;51.152;4.456;2023-04-24T03:39:58;10.00;99.90
22716;DHT22;11525;51.152;4.456;2023-04-24T03:42:24;10.10;99.90
22716;DHT22;11525;51.152;4.456;2023-04-24T03:44:50;10.00;99.90
22716;DHT22;11525;51.152;4.456;2023-04-24T03:47:15;10.10;99.90
22716;DHT22;11525;51.152;4.456;2023-04-24T03:49:41;10.00;99.90
22716;DHT22;11525;51.152;4.456;2023-04-24T03:52:07;10.20;99.90
22716;DHT22;11525;51.152;4.456;2023-04-24T03:54:33;10.10;99.90
22716;DHT22;11525;51.152;4.456;2023-04-24T03:56:59;10.20;99.90
22716;DHT22;11525;51.152;4.456;2023-04-24T03:59:25;10.10;99.90
22716;DHT22;11525;51.152;4.456;2023-04-24T04:01:51;10.10;99.90
22716;DHT22;11525;51.152;4.456;2023-04-24T04:04:16;10.00;99.90
22716;DHT22;11525;51.152;4.456;2023-04-24T04:06:43;10.00;99.90
22716;DHT22;11525;51.152;4.456;2023-04-24T04:09:10;9.90;99.90
22716;DHT22;11525;51.152;4.456;2023-04-24T04:11:36;9.90;99.90
22716;DHT22;11525;51.152;4.456;2023-04-24T04:14:02;10.00;99.90
22716;DHT22;11525;51.152;4.456;2023-04-24T04:16:28;10.00;99.90
22716;DHT22;11525;51.152;4.456;2023-04-24T04:18:54;9.90;99.90
22716;DHT22;11525;51.152;4.456;2023-04-24T04:21:20;9.80;99.90
22716;DHT22;11525;51.152;4.456;2023-04-24T04:23:46;9.70;99.90
22716;DHT22;11525;51.152;4.456;2023-04-24T04:26:12;9.80;99.90
22716;DHT22;11525;51.152;4.456;2023-04-24T04:28:38;9.70;99.90
22716;DHT22;11525;51.152;4.456;2023-04-24T04:31:05;9.60;99.90
22716;DHT22;11525;51.152;4.456;2023-04-24T04:33:33;9.60;99.90
22716;DHT22;11525;51.152;4.456;2023-04-24T04:35:59;9.60;99.90
22716;DHT22;11525;51.152;4.456;2023-04-24T04:38:25;9.50;99.90
22716;DHT22;11525;51.152;4.456;2023-04-24T04:40:55;9.60;99.90
22716;DHT22;11525;51.152;4.456;2023-04-24T04:43:24;9.70;99.90
22716;DHT22;11525;51.152;4.456;2023-04-24T04:45:50;9.70;99.90
22716;DHT22;11525;51.152;4.456;2023-04-24T04:48:21;9.70;99.90
22716;DHT22;11525;51.152;4.456;2023-04-24T04:50:47;9.60;99.90
22716;DHT22;11525;51.152;4.456;2023-04-24T04:53:13;9.50;99.90
22716;DHT22;11525;51.152;4.456;2023-04-24T04:55:39;9.40;99.90
22716;DHT22;11525;51.152;4.456;2023-04-24T04:58:05;9.40;99.90
22716;DHT22;11525;51.152;4.456;2023-04-24T05:00:31;9.40;99.90
22716;DHT22;11525;51.152;4.456;2023-04-24T05:03:01;9.40;99.90
22716;DHT22;11525;51.152;4.456;2023-04-24T05:05:28;9.40;99.90
22716;DHT22;11525;51.152;4.456;2023-04-24T05:07:53;9.30;99.90
22716;DHT22;11525;51.152;4.456;2023-04-24T05:10:20;9.20;99.90
22716;DHT22;11525;51.152;4.456;2023-04-24T05:12:46;9.20;99.90
22716;DHT22;11525;51.152;4.456;2023-04-24T05:15:12;9.20;99.90
22716;DHT22;11525;51.152;4.456;2023-04-24T05:17:38;9.30;99.90
22716;DHT22;11525;51.152;4.456;2023-04-24T05:20:06;9.20;99.90
22716;DHT22;11525;51.152;4.456;2023-04-24T05:22:32;9.20;99.90
22716;DHT22;11525;51.152;4.456;2023-04-24T05:24:58;9.30;99.90
22716;DHT22;11525;51.152;4.456;2023-04-24T05:27:24;9.30;99.90
22716;DHT22;11525;51.152;4.456;2023-04-24T05:29:50;9.30;99.90
22716;DHT22;11525;51.152;4.456;2023-04-24T05:32:16;9.20;99.90
22716;DHT22;11525;51.152;4.456;2023-04-24T05:34:42;9.20;99.90
22716;DHT22;11525;51.152;4.456;2023-04-24T05:37:08;9.10;99.90
22716;DHT22;11525;51.152;4.456;2023-04-24T05:39:35;9.10;99.90
22716;DHT22;11525;51.152;4.456;2023-04-24T05:42:02;9.10;99.90
22716;DHT22;11525;51.152;4.456;2023-04-24T05:44:30;9.10;99.90
22716;DHT22;11525;51.152;4.456;2023-04-24T05:46:56;9.10;99.90
22716;DHT22;11525;51.152;4.456;2023-04-24T05:49:22;9.10;99.90
22716;DHT22;11525;51.152;4.456;2023-04-24T05:51:48;9.10;99.90
22716;DHT22;11525;51.152;4.456;2023-04-24T05:54:14;9.10;99.90
22716;DHT22;11525;51.152;4.456;2023-04-24T05:56:40;9.10;99.90
22716;DHT22;11525;51.152;4.456;2023-04-24T05:59:06;9.10;99.90
22716;DHT22;11525;51.152;4.456;2023-04-24T06:01:32;9.30;99.90
22716;DHT22;11525;51.152;4.456;2023-04-24T06:03:58;9.20;99.90
22716;DHT22;11525;51.152;4.456;2023-04-24T06:06:24;9.30;99.90
22716;DHT22;11525;51.152;4.456;2023-04-24T06:08:49;9.40;99.90
22716;DHT22;11525;51.152;4.456;2023-04-24T06:11:15;9.40;99.90
22716;DHT22;11525;51.152;4.456;2023-04-24T06:13:41;9.30;99.90
22716;DHT22;11525;51.152;4.456;2023-04-24T06:16:07;9.30;99.90
22716;DHT22;11525;51.152;4.456;2023-04-24T06:18:33;9.80;99.90
22716;DHT22;11525;51.152;4.456;2023-04-24T06:20:59;10.40;99.90
22716;DHT22;11525;51.152;4.456;2023-04-24T06:23:25;10.40;99.90
22716;DHT22;11525;51.152;4.456;2023-04-24T06:25:51;10.20;99.90
22716;DHT22;11525;51.152;4.456;2023-04-24T06:28:17;10.10;99.90
22716;DHT22;11525;51.152;4.456;2023-04-24T06:30:43;10.00;99.90
22716;DHT22;11525;51.152;4.456;2023-04-24T06:33:09;10.00;99.90
22716;DHT22;11525;51.152;4.456;2023-04-24T06:35:36;10.10;99.90
22716;DHT22;11525;51.152;4.456;2023-04-24T06:38:03;10.00;99.90
22716;DHT22;11525;51.152;4.456;2023-04-24T06:40:29;9.90;99.90
22716;DHT22;11525;51.152;4.456;2023-04-24T06:42:55;9.90;99.90
22716;DHT22;11525;51.152;4.456;2023-04-24T06:45:21;9.90;99.90
22716;DHT22;11525;51.152;4.456;2023-04-24T06:47:47;10.20;99.90
22716;DHT22;11525;51.152;4.456;2023-04-24T06:50:13;10.20;99.90
22716;DHT22;11525;51.152;4.456;2023-04-24T06:52:40;10.10;99.90
22716;DHT22;11525;51.152;4.456;2023-04-24T06:55:06;10.20;99.90
22716;DHT22;11525;51.152;4.456;2023-04-24T06:57:32;10.30;99.90
22716;DHT22;11525;51.152;4.456;2023-04-24T06:59:58;10.10;99.90
22716;DHT22;11525;51.152;4.456;2023-04-24T07:02:24;10.10;99.90
22716;DHT22;11525;51.152;4.456;2023-04-24T07:04:50;10.10;99.90
22716;DHT22;11525;51.152;4.456;2023-04-24T07:07:16;9.90;99.90
22716;DHT22;11525;51.152;4.456;2023-04-24T07:09:42;9.90;99.90
22716;DHT22;11525;51.152;4.456;2023-04-24T07:12:11;9.90;99.90
22716;DHT22;11525;51.152;4.456;2023-04-24T07:14:37;9.90;99.90
22716;DHT22;11525;51.152;4.456;2023-04-24T07:17:06;10.00;99.90
22716;DHT22;11525;51.152;4.456;2023-04-24T07:19:35;10.00;99.90
22716;DHT22;11525;51.152;4.456;2023-04-24T07:22:01;10.00;99.90
22716;DHT22;11525;51.152;4.456;2023-04-24T07:24:28;9.90;99.90
22716;DHT22;11525;51.152;4.456;2023-04-24T07:26:54;10.10;99.90
22716;DHT22;11525;51.152;4.456;2023-04-24T07:29:20;10.30;99.90
22716;DHT22;11525;51.152;4.456;2023-04-24T07:31:46;10.40;99.90
22716;DHT22;11525;51.152;4.456;2023-04-24T07:34:12;10.50;99.90
22716;DHT22;11525;51.152;4.456;2023-04-24T07:36:38;10.70;99.90
22716;DHT22;11525;51.152;4.456;2023-04-24T07:39:07;10.80;99.90
22716;DHT22;11525;51.152;4.456;2023-04-24T07:41:33;11.10;99.90
22716;DHT22;11525;51.152;4.456;2023-04-24T07:43:59;11.40;99.90
22716;DHT22;11525;51.152;4.456;2023-04-24T07:46:25;11.40;99.90
22716;DHT22;11525;51.152;4.456;2023-04-24T07:48:53;11.70;99.90
22716;DHT22;11525;51.152;4.456;2023-04-24T07:51:19;11.90;99.90
22716;DHT22;11525;51.152;4.456;2023-04-24T07:53:45;11.70;99.90
22716;DHT22;11525;51.152;4.456;2023-04-24T07:56:11;11.60;99.90
22716;DHT22;11525;51.152;4.456;2023-04-24T07:58:36;11.20;99.90
22716;DHT22;11525;51.152;4.456;2023-04-24T08:01:02;11.50;99.90
22716;DHT22;11525;51.152;4.456;2023-04-24T08:03:28;11.70;99.90
22716;DHT22;11525;51.152;4.456;2023-04-24T08:05:54;12.40;99.90
22716;DHT22;11525;51.152;4.456;2023-04-24T08:08:22;13.70;99.90
22716;DHT22;11525;51.152;4.456;2023-04-24T08:10:48;13.40;99.90
22716;DHT22;11525;51.152;4.456;2023-04-24T08:13:14;13.00;99.90
22716;DHT22;11525;51.152;4.456;2023-04-24T08:15:40;12.60;99.90
22716;DHT22;11525;51.152;4.456;2023-04-24T08:18:06;12.20;99.90
22716;DHT22;11525;51.152;4.456;2023-04-24T08:20:32;11.90;99.90
22716;DHT22;11525;51.152;4.456;2023-04-24T08:22:58;11.40;99.90
22716;DHT22;11525;51.152;4.456;2023-04-24T08:25:24;11.20;99.90
22716;DHT22;11525;51.152;4.456;2023-04-24T08:27:50;11.20;99.90
22716;DHT22;11525;51.152;4.456;2023-04-24T08:30:17;11.60;99.90
22716;DHT22;11525;51.152;4.456;2023-04-24T08:32:43;11.70;99.90
22716;DHT22;11525;51.152;4.456;2023-04-24T08:35:09;11.60;99.90
22716;DHT22;11525;51.152;4.456;2023-04-24T08:37:35;11.60;99.90
22716;DHT22;11525;51.152;4.456;2023-04-24T08:40:03;11.50;99.90
22716;DHT22;11525;51.152;4.456;2023-04-24T08:42:32;11.50;99.90
22716;DHT22;11525;51.152;4.456;2023-04-24T08:45:00;11.70;99.90
22716;DHT22;11525;51.152;4.456;2023-04-24T08:47:26;11.80;99.90
22716;DHT22;11525;51.152;4.456;2023-04-24T08:49:54;11.90;99.90
22716;DHT22;11525;51.152;4.456;2023-04-24T08:52:20;12.40;99.90
22716;DHT22;11525;51.152;4.456;2023-04-24T08:54:47;13.40;99.90
22716;DHT22;11525;51.152;4.456;2023-04-24T08:57:14;13.80;99.90
22716;DHT22;11525;51.152;4.456;2023-04-24T08:59:40;13.80;99.90
22716;DHT22;11525;51.152;4.456;2023-04-24T09:02:10;13.60;99.90
22716;DHT22;11525;51.152;4.456;2023-04-24T09:04:37;13.30;99.90
22716;DHT22;11525;51.152;4.456;2023-04-24T09:07:03;13.20;99.90
22716;DHT22;11525;51.152;4.456;2023-04-24T09:09:32;13.00;99.90
22716;DHT22;11525;51.152;4.456;2023-04-24T09:11:59;12.20;99.90
22716;DHT22;11525;51.152;4.456;2023-04-24T09:14:26;11.80;99.90
22716;DHT22;11525;51.152;4.456;2023-04-24T09:16:53;11.50;99.90
22716;DHT22;11525;51.152;4.456;2023-04-24T09:19:19;11.30;99.90
22716;DHT22;11525;51.152;4.456;2023-04-24T09:21:47;11.20;99.90
22716;DHT22;11525;51.152;4.456;2023-04-24T09:24:19;11.30;99.90
22716;DHT22;11525;51.152;4.456;2023-04-24T09:26:48;11.40;99.90
22716;DHT22;11525;51.152;4.456;2023-04-24T09:29:18;11.70;99.90
22716;DHT22;11525;51.152;4.456;2023-04-24T09:31:45;11.80;99.90
22716;DHT22;11525;51.152;4.456;2023-04-24T09:34:11;12.20;99.90
22716;DHT22;11525;51.152;4.456;2023-04-24T09:36:39;12.30;99.90
22716;DHT22;11525;51.152;4.456;2023-04-24T09:39:13;12.30;99.90
22716;DHT22;11525;51.152;4.456;2023-04-24T09:41:50;12.60;99.90
22716;DHT22;11525;51.152;4.456;2023-04-24T09:44:20;12.90;99.90
22716;DHT22;11525;51.152;4.456;2023-04-24T09:46:54;12.70;99.90
22716;DHT22;11525;51.152;4.456;2023-04-24T09:49:27;14.30;99.90
22716;DHT22;11525;51.152;4.456;2023-04-24T09:52:10;16.80;99.90
22716;DHT22;11525;51.152;4.456;2023-04-24T09:54:37;19.50;99.90
22716;DHT22;11525;51.152;4.456;2023-04-24T09:57:04;19.80;99.90
22716;DHT22;11525;51.152;4.456;2023-04-24T09:59:30;19.10;99.90
22716;DHT22;11525;51.152;4.456;2023-04-24T10:01:56;18.20;99.90
22716;DHT22;11525;51.152;4.456;2023-04-24T10:04:28;17.80;99.90
22716;DHT22;11525;51.152;4.456;2023-04-24T10:06:55;17.10;99.90
22716;DHT22;11525;51.152;4.456;2023-04-24T10:09:24;16.60;99.90
22716;DHT22;11525;51.152;4.456;2023-04-24T10:11:52;16.80;99.90
22716;DHT22;11525;51.152;4.456;2023-04-24T10:14:23;16.40;99.90
22716;DHT22;11525;51.152;4.456;2023-04-24T10:16:52;15.50;99.90
22716;DHT22;11525;51.152;4.456;2023-04-24T10:19:18;15.00;99.90
22716;DHT22;11525;51.152;4.456;2023-04-24T10:21:46;16.30;99.90
22716;DHT22;11525;51.152;4.456;2023-04-24T10:24:16;17.20;99.90
22716;DHT22;11525;51.152;4.456;2023-04-24T10:26:43;17.70;98.30
22716;DHT22;11525;51.152;4.456;2023-04-24T10:29:11;18.90;96.20
22716;DHT22;11525;51.152;4.456;2023-04-24T10:31:38;19.10;93.60
22716;DHT22;11525;51.152;4.456;2023-04-24T10:34:06;18.10;97.10
22716;DHT22;11525;51.152;4.456;2023-04-24T10:36:34;19.10;94.20
22716;DHT22;11525;51.152;4.456;2023-04-24T10:39:03;19.40;92.50
22716;DHT22;11525;51.152;4.456;2023-04-24T10:41:32;19.00;93.20
22716;DHT22;11525;51.152;4.456;2023-04-24T10:46:33;21.40;88.70
22716;DHT22;11525;51.152;4.456;2023-04-24T10:48:59;19.20;89.90
22716;DHT22;11525;51.152;4.456;2023-04-24T10:51:48;18.10;92.90
22716;DHT22;11525;51.152;4.456;2023-04-24T10:54:44;17.00;95.50
22716;DHT22;11525;51.152;4.456;2023-04-24T10:59:49;15.40;99.90
22716;DHT22;11525;51.152;4.456;2023-04-24T11:02:17;15.10;99.90
22716;DHT22;11525;51.152;4.456;2023-04-24T11:04:43;15.40;99.90
22716;DHT22;11525;51.152;4.456;2023-04-24T11:07:09;15.50;99.90
22716;DHT22;11525;51.152;4.456;2023-04-24T11:09:36;15.80;99.90
22716;DHT22;11525;51.152;4.456;2023-04-24T11:12:08;15.70;99.90
22716;DHT22;11525;51.152;4.456;2023-04-24T11:17:34;14.40;99.90
22716;DHT22;11525;51.152;4.456;2023-04-24T11:20:07;14.20;99.90
22716;DHT22;11525;51.152;4.456;2023-04-24T11:22:38;14.10;99.90
22716;DHT22;11525;51.152;4.456;2023-04-24T11:25:06;13.90;99.90
22716;DHT22;11525;51.152;4.456;2023-04-24T11:27:39;13.70;99.90
22716;DHT22;11525;51.152;4.456;2023-04-24T11:30:06;14.10;99.90
22716;DHT22;11525;51.152;4.456;2023-04-24T11:32:36;14.30;99.90
22716;DHT22;11525;51.152;4.456;2023-04-24T11:35:08;14.40;99.90
22716;DHT22;11525;51.152;4.456;2023-04-24T11:37:37;14.40;99.90
22716;DHT22;11525;51.152;4.456;2023-04-24T11:40:05;14.00;99.90
22716;DHT22;11525;51.152;4.456;2023-04-24T11:42:39;14.00;99.90
22716;DHT22;11525;51.152;4.456;2023-04-24T11:47:34;14.50;99.90
22716;DHT22;11525;51.152;4.456;2023-04-24T11:50:01;15.00;99.90
22716;DHT22;11525;51.152;4.456;2023-04-24T11:52:27;15.40;99.90
22716;DHT22;11525;51.152;4.456;2023-04-24T11:54:53;15.90;99.90
22716;DHT22;11525;51.152;4.456;2023-04-24T11:57:20;15.80;99.90
22716;DHT22;11525;51.152;4.456;2023-04-24T11:59:47;15.80;99.90
22716;DHT22;11525;51.152;4.456;2023-04-24T12:02:23;15.80;99.90
22716;DHT22;11525;51.152;4.456;2023-04-24T12:04:49;15.40;99.90
22716;DHT22;11525;51.152;4.456;2023-04-24T12:07:15;15.10;99.90
22716;DHT22;11525;51.152;4.456;2023-04-24T12:09:48;15.40;99.90
22716;DHT22;11525;51.152;4.456;2023-04-24T12:12:17;15.10;99.90
22716;DHT22;11525;51.152;4.456;2023-04-24T12:14:48;15.30;99.90
22716;DHT22;11525;51.152;4.456;2023-04-24T12:17:15;15.50;99.90
22716;DHT22;11525;51.152;4.456;2023-04-24T12:19:46;15.30;99.90
22716;DHT22;11525;51.152;4.456;2023-04-24T12:22:12;15.00;99.90
22716;DHT22;11525;51.152;4.456;2023-04-24T12:24:56;14.70;99.90
22716;DHT22;11525;51.152;4.456;2023-04-24T12:27:22;14.80;99.90
22716;DHT22;11525;51.152;4.456;2023-04-24T12:29:58;15.10;99.90
22716;DHT22;11525;51.152;4.456;2023-04-24T12:32:25;15.30;99.90
22716;DHT22;11525;51.152;4.456;2023-04-24T12:34:52;15.30;99.90
22716;DHT22;11525;51.152;4.456;2023-04-24T12:37:18;15.40;99.90
22716;DHT22;11525;51.152;4.456;2023-04-24T12:40:04;15.40;99.90
22716;DHT22;11525;51.152;4.456;2023-04-24T12:42:31;15.80;99.90
22716;DHT22;11525;51.152;4.456;2023-04-24T12:45:06;15.90;98.60
22716;DHT22;11525;51.152;4.456;2023-04-24T12:47:34;16.00;98.50
22716;DHT22;11525;51.152;4.456;2023-04-24T12:50:00;16.20;98.50
22716;DHT22;11525;51.152;4.456;2023-04-24T12:52:28;16.40;99.90
22716;DHT22;11525;51.152;4.456;2023-04-24T12:54:59;16.30;99.90
22716;DHT22;11525;51.152;4.456;2023-04-24T12:57:26;15.90;99.90
22716;DHT22;11525;51.152;4.456;2023-04-24T12:59:56;15.80;99.90
22716;DHT22;11525;51.152;4.456;2023-04-24T13:02:23;15.90;99.90
22716;DHT22;11525;51.152;4.456;2023-04-24T13:04:49;15.60;99.90
22716;DHT22;11525;51.152;4.456;2023-04-24T13:07:15;15.70;99.60
22716;DHT22;11525;51.152;4.456;2023-04-24T13:09:42;15.80;99.90
22716;DHT22;11525;51.152;4.456;2023-04-24T13:12:09;15.80;99.70
22716;DHT22;11525;51.152;4.456;2023-04-24T13:14:35;16.00;99.90
22716;DHT22;11525;51.152;4.456;2023-04-24T13:17:01;15.60;99.90
22716;DHT22;11525;51.152;4.456;2023-04-24T13:19:28;15.30;99.90
22716;DHT22;11525;51.152;4.456;2023-04-24T13:21:55;15.60;99.90
22716;DHT22;11525;51.152;4.456;2023-04-24T13:24:25;15.70;99.90
22716;DHT22;11525;51.152;4.456;2023-04-24T13:26:54;15.50;99.70
22716;DHT22;11525;51.152;4.456;2023-04-24T13:29:22;15.40;98.80
22716;DHT22;11525;51.152;4.456;2023-04-24T13:31:50;15.20;99.20
22716;DHT22;11525;51.152;4.456;2023-04-24T13:34:17;15.10;99.30
22716;DHT22;11525;51.152;4.456;2023-04-24T13:36:43;15.10;98.90
22716;DHT22;11525;51.152;4.456;2023-04-24T13:39:09;15.20;99.90
22716;DHT22;11525;51.152;4.456;2023-04-24T13:41:35;15.20;99.90
22716;DHT22;11525;51.152;4.456;2023-04-24T13:44:05;15.00;99.90
22716;DHT22;11525;51.152;4.456;2023-04-24T13:46:31;15.00;99.90
22716;DHT22;11525;51.152;4.456;2023-04-24T13:48:57;14.70;99.90
22716;DHT22;11525;51.152;4.456;2023-04-24T13:51:27;14.70;99.90
22716;DHT22;11525;51.152;4.456;2023-04-24T13:53:53;14.90;99.90
22716;DHT22;11525;51.152;4.456;2023-04-24T13:56:19;15.30;99.90
22716;DHT22;11525;51.152;4.456;2023-04-24T13:58:45;15.40;99.90
22716;DHT22;11525;51.152;4.456;2023-04-24T14:01:12;15.50;99.90
22716;DHT22;11525;51.152;4.456;2023-04-24T14:03:38;15.50;99.90
22716;DHT22;11525;51.152;4.456;2023-04-24T14:06:04;15.30;99.90
22716;DHT22;11525;51.152;4.456;2023-04-24T14:08:32;15.00;99.90
22716;DHT22;11525;51.152;4.456;2023-04-24T14:10:58;14.80;99.90
22716;DHT22;11525;51.152;4.456;2023-04-24T14:13:24;14.60;99.90
22716;DHT22;11525;51.152;4.456;2023-04-24T14:15:51;14.50;99.90
22716;DHT22;11525;51.152;4.456;2023-04-24T14:18:18;14.30;99.90
22716;DHT22;11525;51.152;4.456;2023-04-24T14:20:44;14.30;99.90
22716;DHT22;11525;51.152;4.456;2023-04-24T14:23:10;14.10;99.90
22716;DHT22;11525;51.152;4.456;2023-04-24T14:25:36;14.10;99.90
22716;DHT22;11525;51.152;4.456;2023-04-24T14:28:02;14.20;99.90
22716;DHT22;11525;51.152;4.456;2023-04-24T14:30:28;14.30;99.90
22716;DHT22;11525;51.152;4.456;2023-04-24T14:32:53;14.20;99.90
22716;DHT22;11525;51.152;4.456;2023-04-24T14:35:19;14.50;99.90
22716;DHT22;11525;51.152;4.456;2023-04-24T14:37:45;14.90;99.90
22716;DHT22;11525;51.152;4.456;2023-04-24T14:40:11;15.10;99.90
22716;DHT22;11525;51.152;4.456;2023-04-24T14:42:37;15.10;99.90
22716;DHT22;11525;51.152;4.456;2023-04-24T14:45:03;15.00;99.90
22716;DHT22;11525;51.152;4.456;2023-04-24T14:47:29;15.00;99.90
22716;DHT22;11525;51.152;4.456;2023-04-24T14:49:55;15.00;99.90
22716;DHT22;11525;51.152;4.456;2023-04-24T14:52:21;15.00;99.90
22716;DHT22;11525;51.152;4.456;2023-04-24T14:54:47;15.20;99.30
22716;DHT22;11525;51.152;4.456;2023-04-24T14:57:12;15.30;99.00
22716;DHT22;11525;51.152;4.456;2023-04-24T14:59:38;15.20;99.00
22716;DHT22;11525;51.152;4.456;2023-04-24T15:02:05;14.90;99.20
22716;DHT22;11525;51.152;4.456;2023-04-24T15:04:31;14.90;99.30
22716;DHT22;11525;51.152;4.456;2023-04-24T15:06:57;14.90;99.80
22716;DHT22;11525;51.152;4.456;2023-04-24T15:09:24;14.90;99.90
22716;DHT22;11525;51.152;4.456;2023-04-24T15:11:50;14.90;99.80
22716;DHT22;11525;51.152;4.456;2023-04-24T15:14:17;14.70;99.90
22716;DHT22;11525;51.152;4.456;2023-04-24T15:16:43;14.60;99.90
22716;DHT22;11525;51.152;4.456;2023-04-24T15:19:10;14.50;99.90
22716;DHT22;11525;51.152;4.456;2023-04-24T15:21:36;14.40;99.90
22716;DHT22;11525;51.152;4.456;2023-04-24T15:24:06;14.30;99.90
22716;DHT22;11525;51.152;4.456;2023-04-24T15:26:32;14.30;99.90
22716;DHT22;11525;51.152;4.456;2023-04-24T15:28:58;14.40;99.90
22716;DHT22;11525;51.152;4.456;2023-04-24T15:31:24;14.60;99.90
22716;DHT22;11525;51.152;4.456;2023-04-24T15:33:50;14.80;99.90
22716;DHT22;11525;51.152;4.456;2023-04-24T15:36:17;14.50;99.90
22716;DHT22;11525;51.152;4.456;2023-04-24T15:38:43;14.30;99.90
22716;DHT22;11525;51.152;4.456;2023-04-24T15:41:10;14.30;99.90